sensor_id;sensor_type;location;lat;lon;timestamp;P1;durP1;ratioP1;P2;durP2;ratioP2
41923;SDS011;27613;48.116;11.656;2023-05-10T00:01:24;1.40;;;1.13;;
41923;SDS011;27613;48.116;11.656;2023-05-10T00:03:50;3.70;;;0.90;;
41923;SDS011;27613;48.116;11.656;2023-05-10T00:06:16;2.28;;;1.35;;
41923;SDS011;27613;48.116;11.656;2023-05-10T00:08:41;1.70;;;1.10;;
41923;SDS011;27613;48.116;11.656;2023-05-10T00:11:07;6.05;;;1.17;;
41923;SDS011;27613;48.116;11.656;2023-05-10T00:13:32;1.92;;;1.15;;
41923;SDS011;27613;48.116;11.656;2023-05-10T00:15:58;2.03;;;1.00;;
41923;SDS011;27613;48.116;11.656;2023-05-10T00:18:24;1.52;;;1.00;;
41923;SDS011;27613;48.116;11.656;2023-05-10T00:20:49;1.30;;;1.10;;
41923;SDS011;27613;48.116;11.656;2023-05-10T00:23:15;1.30;;;1.05;;
41923;SDS011;27613;48.116;11.656;2023-05-10T00:25:40;1.85;;;1.10;;
41923;SDS011;27613;48.116;11.656;2023-05-10T00:28:06;2.47;;;1.23;;
41923;SDS011;27613;48.116;11.656;2023-05-10T00:30:31;2.20;;;0.90;;
41923;SDS011;27613;48.116;11.656;2023-05-10T00:32:57;3.03;;;1.45;;
41923;SDS011;27613;48.116;11.656;2023-05-10T00:35:22;1.33;;;0.90;;
41923;SDS011;27613;48.116;11.656;2023-05-10T00:37:48;1.95;;;1.10;;
41923;SDS011;27613;48.116;11.656;2023-05-10T00:40:14;1.05;;;0.93;;
41923;SDS011;27613;48.116;11.656;2023-05-10T00:42:39;2.50;;;1.17;;
41923;SDS011;27613;48.116;11.656;2023-05-10T00:45:05;2.03;;;0.90;;
41923;SDS011;27613;48.116;11.656;2023-05-10T00:47:31;1.92;;;0.90;;
41923;SDS011;27613;48.116;11.656;2023-05-10T00:49:57;2.00;;;1.00;;
41923;SDS011;27613;48.116;11.656;2023-05-10T00:52:25;6.15;;;0.98;;
41923;SDS011;27613;48.116;11.656;2023-05-10T00:54:51;5.75;;;0.90;;
41923;SDS011;27613;48.116;11.656;2023-05-10T00:57:17;2.58;;;1.02;;
41923;SDS011;27613;48.116;11.656;2023-05-10T00:59:43;2.65;;;0.95;;
41923;SDS011;27613;48.116;11.656;2023-05-10T01:02:09;1.30;;;0.90;;
41923;SDS011;27613;48.116;11.656;2023-05-10T01:04:34;1.08;;;0.80;;
41923;SDS011;27613;48.116;11.656;2023-05-10T01:07:00;1.90;;;0.98;;
41923;SDS011;27613;48.116;11.656;2023-05-10T01:09:26;1.25;;;1.02;;
41923;SDS011;27613;48.116;11.656;2023-05-10T01:11:52;1.17;;;0.80;;
41923;SDS011;27613;48.116;11.656;2023-05-10T01:14:19;1.33;;;0.80;;
41923;SDS011;27613;48.116;11.656;2023-05-10T01:16:45;0.98;;;0.90;;
41923;SDS011;27613;48.116;11.656;2023-05-10T01:19:18;1.42;;;1.05;;
41923;SDS011;27613;48.116;11.656;2023-05-10T01:24:44;0.75;;;0.75;;
41923;SDS011;27613;48.116;11.656;2023-05-10T01:27:25;1.48;;;0.98;;
41923;SDS011;27613;48.116;11.656;2023-05-10T01:30:08;0.90;;;0.80;;
41923;SDS011;27613;48.116;11.656;2023-05-10T01:35:42;0.90;;;0.80;;
41923;SDS011;27613;48.116;11.656;2023-05-10T01:43:26;0.75;;;0.63;;
41923;SDS011;27613;48.116;11.656;2023-05-10T01:48:36;1.25;;;0.70;;
41923;SDS011;27613;48.116;11.656;2023-05-10T01:51:05;1.50;;;0.73;;
41923;SDS011;27613;48.116;11.656;2023-05-10T01:53:32;1.48;;;0.80;;
41923;SDS011;27613;48.116;11.656;2023-05-10T01:56:00;1.05;;;0.90;;
41923;SDS011;27613;48.116;11.656;2023-05-10T01:58:28;1.45;;;0.77;;
41923;SDS011;27613;48.116;11.656;2023-05-10T02:00:56;1.15;;;0.80;;
41923;SDS011;27613;48.116;11.656;2023-05-10T02:03:25;2.17;;;0.80;;
41923;SDS011;27613;48.116;11.656;2023-05-10T02:05:53;2.25;;;0.90;;
41923;SDS011;27613;48.116;11.656;2023-05-10T02:08:20;0.95;;;0.70;;
41923;SDS011;27613;48.116;11.656;2023-05-10T02:10:47;2.10;;;1.05;;
41923;SDS011;27613;48.116;11.656;2023-05-10T02:13:16;2.10;;;0.70;;
41923;SDS011;27613;48.116;11.656;2023-05-10T02:15:43;1.27;;;0.85;;
41923;SDS011;27613;48.116;11.656;2023-05-10T02:18:12;1.25;;;0.80;;
41923;SDS011;27613;48.116;11.656;2023-05-10T02:20:39;0.47;;;0.47;;
41923;SDS011;27613;48.116;11.656;2023-05-10T02:23:05;1.15;;;0.88;;
41923;SDS011;27613;48.116;11.656;2023-05-10T02:25:32;1.58;;;0.90;;
41923;SDS011;27613;48.116;11.656;2023-05-10T02:27:58;1.17;;;0.90;;
41923;SDS011;27613;48.116;11.656;2023-05-10T02:30:26;0.85;;;0.80;;
41923;SDS011;27613;48.116;11.656;2023-05-10T02:32:53;1.35;;;0.77;;
41923;SDS011;27613;48.116;11.656;2023-05-10T02:35:19;0.73;;;0.65;;
41923;SDS011;27613;48.116;11.656;2023-05-10T02:37:46;30.65;;;1.67;;
41923;SDS011;27613;48.116;11.656;2023-05-10T02:40:12;1.70;;;0.98;;
41923;SDS011;27613;48.116;11.656;2023-05-10T02:42:42;1.10;;;0.70;;
41923;SDS011;27613;48.116;11.656;2023-05-10T02:45:11;0.68;;;0.68;;
41923;SDS011;27613;48.116;11.656;2023-05-10T02:47:40;2.47;;;0.82;;
41923;SDS011;27613;48.116;11.656;2023-05-10T02:50:06;3.55;;;0.90;;
41923;SDS011;27613;48.116;11.656;2023-05-10T02:52:42;0.75;;;0.70;;
41923;SDS011;27613;48.116;11.656;2023-05-10T02:55:12;2.00;;;0.88;;
41923;SDS011;27613;48.116;11.656;2023-05-10T02:57:41;1.52;;;0.90;;
41923;SDS011;27613;48.116;11.656;2023-05-10T03:00:13;1.00;;;0.90;;
41923;SDS011;27613;48.116;11.656;2023-05-10T03:02:39;0.45;;;0.45;;
41923;SDS011;27613;48.116;11.656;2023-05-10T03:05:05;1.52;;;0.98;;
41923;SDS011;27613;48.116;11.656;2023-05-10T03:07:31;1.63;;;0.80;;
41923;SDS011;27613;48.116;11.656;2023-05-10T03:09:58;0.73;;;0.60;;
41923;SDS011;27613;48.116;11.656;2023-05-10T03:12:31;0.68;;;0.60;;
41923;SDS011;27613;48.116;11.656;2023-05-10T03:15:13;0.90;;;0.70;;
41923;SDS011;27613;48.116;11.656;2023-05-10T03:20:48;1.33;;;0.80;;
41923;SDS011;27613;48.116;11.656;2023-05-10T03:23:22;1.10;;;0.70;;
41923;SDS011;27613;48.116;11.656;2023-05-10T03:25:59;3.90;;;0.93;;
41923;SDS011;27613;48.116;11.656;2023-05-10T03:28:26;1.08;;;0.68;;
41923;SDS011;27613;48.116;11.656;2023-05-10T03:30:53;0.52;;;0.52;;
41923;SDS011;27613;48.116;11.656;2023-05-10T03:33:19;0.75;;;0.70;;
41923;SDS011;27613;48.116;11.656;2023-05-10T03:35:45;0.57;;;0.50;;
41923;SDS011;27613;48.116;11.656;2023-05-10T03:38:11;0.68;;;0.50;;
41923;SDS011;27613;48.116;11.656;2023-05-10T03:40:37;0.70;;;0.57;;
41923;SDS011;27613;48.116;11.656;2023-05-10T03:43:02;1.48;;;0.52;;
41923;SDS011;27613;48.116;11.656;2023-05-10T03:45:28;1.65;;;0.60;;
41923;SDS011;27613;48.116;11.656;2023-05-10T03:47:53;0.52;;;0.50;;
41923;SDS011;27613;48.116;11.656;2023-05-10T03:50:20;1.15;;;0.70;;
41923;SDS011;27613;48.116;11.656;2023-05-10T03:52:45;0.65;;;0.52;;
41923;SDS011;27613;48.116;11.656;2023-05-10T03:55:11;3.58;;;0.68;;
41923;SDS011;27613;48.116;11.656;2023-05-10T03:57:37;1.27;;;0.65;;
41923;SDS011;27613;48.116;11.656;2023-05-10T04:00:03;2.03;;;0.60;;
41923;SDS011;27613;48.116;11.656;2023-05-10T04:02:29;0.60;;;0.60;;
41923;SDS011;27613;48.116;11.656;2023-05-10T04:04:55;2.78;;;0.70;;
41923;SDS011;27613;48.116;11.656;2023-05-10T04:07:21;1.48;;;0.57;;
41923;SDS011;27613;48.116;11.656;2023-05-10T04:09:46;0.45;;;0.40;;
41923;SDS011;27613;48.116;11.656;2023-05-10T04:12:12;0.68;;;0.47;;
41923;SDS011;27613;48.116;11.656;2023-05-10T04:14:38;0.57;;;0.50;;
41923;SDS011;27613;48.116;11.656;2023-05-10T04:17:03;2.53;;;0.70;;
41923;SDS011;27613;48.116;11.656;2023-05-10T04:19:32;0.60;;;0.60;;
41923;SDS011;27613;48.116;11.656;2023-05-10T04:21:58;1.77;;;1.00;;
41923;SDS011;27613;48.116;11.656;2023-05-10T04:24:24;0.52;;;0.50;;
41923;SDS011;27613;48.116;11.656;2023-05-10T04:26:49;0.60;;;0.52;;
41923;SDS011;27613;48.116;11.656;2023-05-10T04:29:15;0.90;;;0.65;;
41923;SDS011;27613;48.116;11.656;2023-05-10T04:31:41;1.20;;;0.60;;
41923;SDS011;27613;48.116;11.656;2023-05-10T04:34:06;2.63;;;0.40;;
41923;SDS011;27613;48.116;11.656;2023-05-10T04:36:32;1.45;;;0.50;;
41923;SDS011;27613;48.116;11.656;2023-05-10T04:39:00;1.13;;;0.73;;
41923;SDS011;27613;48.116;11.656;2023-05-10T04:41:25;0.40;;;0.40;;
41923;SDS011;27613;48.116;11.656;2023-05-10T04:43:51;1.30;;;0.52;;
41923;SDS011;27613;48.116;11.656;2023-05-10T04:46:16;0.60;;;0.50;;
41923;SDS011;27613;48.116;11.656;2023-05-10T04:48:42;0.50;;;0.45;;
41923;SDS011;27613;48.116;11.656;2023-05-10T04:51:07;0.80;;;0.65;;
41923;SDS011;27613;48.116;11.656;2023-05-10T04:53:33;0.45;;;0.45;;
41923;SDS011;27613;48.116;11.656;2023-05-10T04:55:58;0.77;;;0.60;;
41923;SDS011;27613;48.116;11.656;2023-05-10T04:58:24;1.33;;;0.38;;
41923;SDS011;27613;48.116;11.656;2023-05-10T05:00:49;0.93;;;0.57;;
41923;SDS011;27613;48.116;11.656;2023-05-10T05:03:15;0.98;;;0.40;;
41923;SDS011;27613;48.116;11.656;2023-05-10T05:05:41;0.65;;;0.52;;
41923;SDS011;27613;48.116;11.656;2023-05-10T05:08:06;4.45;;;0.70;;
41923;SDS011;27613;48.116;11.656;2023-05-10T05:10:31;1.13;;;0.68;;
41923;SDS011;27613;48.116;11.656;2023-05-10T05:12:57;0.50;;;0.50;;
41923;SDS011;27613;48.116;11.656;2023-05-10T05:15:23;0.35;;;0.35;;
41923;SDS011;27613;48.116;11.656;2023-05-10T05:17:48;0.38;;;0.38;;
41923;SDS011;27613;48.116;11.656;2023-05-10T05:20:14;0.90;;;0.52;;
41923;SDS011;27613;48.116;11.656;2023-05-10T05:22:39;1.95;;;0.60;;
41923;SDS011;27613;48.116;11.656;2023-05-10T05:25:05;0.40;;;0.40;;
41923;SDS011;27613;48.116;11.656;2023-05-10T05:27:31;2.10;;;0.80;;
41923;SDS011;27613;48.116;11.656;2023-05-10T05:29:57;1.05;;;0.70;;
41923;SDS011;27613;48.116;11.656;2023-05-10T05:32:23;1.65;;;0.70;;
41923;SDS011;27613;48.116;11.656;2023-05-10T05:34:50;1.08;;;0.73;;
41923;SDS011;27613;48.116;11.656;2023-05-10T05:37:16;5.35;;;0.63;;
41923;SDS011;27613;48.116;11.656;2023-05-10T05:39:43;2.03;;;0.70;;
41923;SDS011;27613;48.116;11.656;2023-05-10T05:42:09;3.67;;;0.60;;
41923;SDS011;27613;48.116;11.656;2023-05-10T05:44:36;2.58;;;0.60;;
41923;SDS011;27613;48.116;11.656;2023-05-10T05:47:01;0.82;;;0.60;;
41923;SDS011;27613;48.116;11.656;2023-05-10T05:49:27;0.40;;;0.40;;
41923;SDS011;27613;48.116;11.656;2023-05-10T05:51:52;1.02;;;0.60;;
41923;SDS011;27613;48.116;11.656;2023-05-10T05:54:18;3.00;;;1.08;;
41923;SDS011;27613;48.116;11.656;2023-05-10T05:56:44;1.35;;;1.00;;
41923;SDS011;27613;48.116;11.656;2023-05-10T05:59:10;1.73;;;0.65;;
41923;SDS011;27613;48.116;11.656;2023-05-10T06:01:36;4.35;;;0.90;;
41923;SDS011;27613;48.116;11.656;2023-05-10T06:04:01;1.55;;;0.73;;
41923;SDS011;27613;48.116;11.656;2023-05-10T06:06:27;1.27;;;0.70;;
41923;SDS011;27613;48.116;11.656;2023-05-10T06:08:53;1.70;;;1.00;;
41923;SDS011;27613;48.116;11.656;2023-05-10T06:11:19;4.45;;;0.88;;
41923;SDS011;27613;48.116;11.656;2023-05-10T06:13:45;1.83;;;0.93;;
41923;SDS011;27613;48.116;11.656;2023-05-10T06:16:12;3.33;;;0.93;;
41923;SDS011;27613;48.116;11.656;2023-05-10T06:18:38;0.90;;;0.68;;
41923;SDS011;27613;48.116;11.656;2023-05-10T06:21:03;2.05;;;0.70;;
41923;SDS011;27613;48.116;11.656;2023-05-10T06:23:29;2.10;;;1.10;;
41923;SDS011;27613;48.116;11.656;2023-05-10T06:25:54;1.38;;;0.80;;
41923;SDS011;27613;48.116;11.656;2023-05-10T06:28:20;2.45;;;0.80;;
41923;SDS011;27613;48.116;11.656;2023-05-10T06:30:46;6.95;;;1.00;;
41923;SDS011;27613;48.116;11.656;2023-05-10T06:33:11;1.33;;;1.00;;
41923;SDS011;27613;48.116;11.656;2023-05-10T06:35:37;2.88;;;1.10;;
41923;SDS011;27613;48.116;11.656;2023-05-10T06:38:02;1.73;;;1.10;;
41923;SDS011;27613;48.116;11.656;2023-05-10T06:40:28;1.48;;;0.90;;
41923;SDS011;27613;48.116;11.656;2023-05-10T06:42:53;1.95;;;0.90;;
41923;SDS011;27613;48.116;11.656;2023-05-10T06:45:19;1.27;;;0.80;;
41923;SDS011;27613;48.116;11.656;2023-05-10T06:47:44;1.60;;;1.00;;
41923;SDS011;27613;48.116;11.656;2023-05-10T06:50:10;7.28;;;1.27;;
41923;SDS011;27613;48.116;11.656;2023-05-10T06:52:36;4.70;;;1.13;;
41923;SDS011;27613;48.116;11.656;2023-05-10T06:55:03;3.83;;;1.08;;
41923;SDS011;27613;48.116;11.656;2023-05-10T06:57:29;1.52;;;0.90;;
41923;SDS011;27613;48.116;11.656;2023-05-10T06:59:54;1.85;;;0.80;;
41923;SDS011;27613;48.116;11.656;2023-05-10T07:02:21;1.27;;;0.95;;
41923;SDS011;27613;48.116;11.656;2023-05-10T07:04:47;2.83;;;1.00;;
41923;SDS011;27613;48.116;11.656;2023-05-10T07:07:13;5.43;;;1.10;;
41923;SDS011;27613;48.116;11.656;2023-05-10T07:09:39;1.00;;;0.70;;
41923;SDS011;27613;48.116;11.656;2023-05-10T07:12:04;1.65;;;1.00;;
41923;SDS011;27613;48.116;11.656;2023-05-10T07:14:30;0.77;;;0.73;;
41923;SDS011;27613;48.116;11.656;2023-05-10T07:16:56;1.85;;;1.00;;
41923;SDS011;27613;48.116;11.656;2023-05-10T07:19:21;1.17;;;0.88;;
41923;SDS011;27613;48.116;11.656;2023-05-10T07:21:47;1.27;;;1.17;;
41923;SDS011;27613;48.116;11.656;2023-05-10T07:24:12;1.98;;;1.20;;
41923;SDS011;27613;48.116;11.656;2023-05-10T07:26:38;1.70;;;1.10;;
41923;SDS011;27613;48.116;11.656;2023-05-10T07:29:03;3.50;;;0.82;;
41923;SDS011;27613;48.116;11.656;2023-05-10T07:31:29;2.45;;;0.80;;
41923;SDS011;27613;48.116;11.656;2023-05-10T07:33:54;2.75;;;0.90;;
41923;SDS011;27613;48.116;11.656;2023-05-10T07:36:20;1.48;;;0.98;;
41923;SDS011;27613;48.116;11.656;2023-05-10T07:38:45;2.60;;;0.90;;
41923;SDS011;27613;48.116;11.656;2023-05-10T07:41:11;3.97;;;1.45;;
41923;SDS011;27613;48.116;11.656;2023-05-10T07:43:37;0.93;;;0.60;;
41923;SDS011;27613;48.116;11.656;2023-05-10T07:46:02;1.00;;;0.73;;
41923;SDS011;27613;48.116;11.656;2023-05-10T07:48:28;1.35;;;0.77;;
41923;SDS011;27613;48.116;11.656;2023-05-10T07:50:54;1.63;;;0.90;;
41923;SDS011;27613;48.116;11.656;2023-05-10T07:53:19;1.25;;;0.88;;
41923;SDS011;27613;48.116;11.656;2023-05-10T07:55:49;5.15;;;0.80;;
41923;SDS011;27613;48.116;11.656;2023-05-10T07:58:16;0.70;;;0.60;;
41923;SDS011;27613;48.116;11.656;2023-05-10T08:00:42;1.30;;;0.80;;
41923;SDS011;27613;48.116;11.656;2023-05-10T08:03:07;1.83;;;0.80;;
41923;SDS011;27613;48.116;11.656;2023-05-10T08:05:33;2.10;;;0.88;;
41923;SDS011;27613;48.116;11.656;2023-05-10T08:07:58;1.15;;;0.57;;
41923;SDS011;27613;48.116;11.656;2023-05-10T08:10:24;2.05;;;0.80;;
41923;SDS011;27613;48.116;11.656;2023-05-10T08:12:50;1.75;;;0.63;;
41923;SDS011;27613;48.116;11.656;2023-05-10T08:15:16;1.35;;;0.60;;
41923;SDS011;27613;48.116;11.656;2023-05-10T08:17:41;1.13;;;0.70;;
41923;SDS011;27613;48.116;11.656;2023-05-10T08:20:08;1.95;;;0.90;;
41923;SDS011;27613;48.116;11.656;2023-05-10T08:22:34;1.50;;;0.70;;
41923;SDS011;27613;48.116;11.656;2023-05-10T08:24:59;0.63;;;0.50;;
41923;SDS011;27613;48.116;11.656;2023-05-10T08:27:25;1.45;;;0.77;;
41923;SDS011;27613;48.116;11.656;2023-05-10T08:29:50;1.70;;;0.73;;
41923;SDS011;27613;48.116;11.656;2023-05-10T08:32:16;3.53;;;1.10;;
41923;SDS011;27613;48.116;11.656;2023-05-10T08:34:42;2.13;;;1.42;;
41923;SDS011;27613;48.116;11.656;2023-05-10T08:37:07;1.50;;;0.85;;
41923;SDS011;27613;48.116;11.656;2023-05-10T08:39:36;0.47;;;0.40;;
41923;SDS011;27613;48.116;11.656;2023-05-10T08:42:02;1.02;;;0.57;;
41923;SDS011;27613;48.116;11.656;2023-05-10T08:44:30;1.48;;;0.68;;
41923;SDS011;27613;48.116;11.656;2023-05-10T08:46:57;1.02;;;0.52;;
41923;SDS011;27613;48.116;11.656;2023-05-10T08:49:26;0.47;;;0.47;;
41923;SDS011;27613;48.116;11.656;2023-05-10T08:51:55;0.75;;;0.50;;
41923;SDS011;27613;48.116;11.656;2023-05-10T08:54:24;1.58;;;0.60;;
41923;SDS011;27613;48.116;11.656;2023-05-10T08:56:50;5.18;;;0.77;;
41923;SDS011;27613;48.116;11.656;2023-05-10T08:59:16;1.55;;;0.77;;
41923;SDS011;27613;48.116;11.656;2023-05-10T09:01:42;0.60;;;0.50;;
41923;SDS011;27613;48.116;11.656;2023-05-10T09:04:09;1.15;;;0.50;;
41923;SDS011;27613;48.116;11.656;2023-05-10T09:06:35;1.23;;;0.68;;
41923;SDS011;27613;48.116;11.656;2023-05-10T09:09:01;1.50;;;0.88;;
41923;SDS011;27613;48.116;11.656;2023-05-10T09:11:28;1.75;;;0.63;;
41923;SDS011;27613;48.116;11.656;2023-05-10T09:13:55;0.90;;;0.70;;
41923;SDS011;27613;48.116;11.656;2023-05-10T09:16:21;2.80;;;0.98;;
41923;SDS011;27613;48.116;11.656;2023-05-10T09:18:48;0.75;;;0.55;;
41923;SDS011;27613;48.116;11.656;2023-05-10T09:21:14;3.55;;;0.77;;
41923;SDS011;27613;48.116;11.656;2023-05-10T09:23:43;0.90;;;0.60;;
41923;SDS011;27613;48.116;11.656;2023-05-10T09:26:12;1.40;;;0.73;;
41923;SDS011;27613;48.116;11.656;2023-05-10T09:28:50;0.88;;;0.68;;
41923;SDS011;27613;48.116;11.656;2023-05-10T09:31:18;3.22;;;1.17;;
41923;SDS011;27613;48.116;11.656;2023-05-10T09:33:47;0.80;;;0.40;;
41923;SDS011;27613;48.116;11.656;2023-05-10T09:36:13;0.98;;;0.50;;
41923;SDS011;27613;48.116;11.656;2023-05-10T09:38:46;0.82;;;0.60;;
41923;SDS011;27613;48.116;11.656;2023-05-10T09:41:22;0.70;;;0.47;;
41923;SDS011;27613;48.116;11.656;2023-05-10T09:43:49;1.85;;;0.60;;
41923;SDS011;27613;48.116;11.656;2023-05-10T09:46:21;2.17;;;0.50;;
41923;SDS011;27613;48.116;11.656;2023-05-10T09:48:47;0.77;;;0.35;;
41923;SDS011;27613;48.116;11.656;2023-05-10T09:54:09;1.33;;;0.60;;
41923;SDS011;27613;48.116;11.656;2023-05-10T09:56:36;0.60;;;0.40;;
41923;SDS011;27613;48.116;11.656;2023-05-10T09:59:03;0.47;;;0.38;;
41923;SDS011;27613;48.116;11.656;2023-05-10T10:01:30;1.73;;;0.60;;
41923;SDS011;27613;48.116;11.656;2023-05-10T10:03:56;0.93;;;0.57;;
41923;SDS011;27613;48.116;11.656;2023-05-10T10:06:23;1.02;;;0.50;;
41923;SDS011;27613;48.116;11.656;2023-05-10T10:08:49;1.67;;;0.60;;
41923;SDS011;27613;48.116;11.656;2023-05-10T10:11:15;0.52;;;0.40;;
41923;SDS011;27613;48.116;11.656;2023-05-10T10:13:41;3.50;;;0.70;;
41923;SDS011;27613;48.116;11.656;2023-05-10T10:16:07;1.10;;;0.60;;
41923;SDS011;27613;48.116;11.656;2023-05-10T10:18:33;2.10;;;0.73;;
41923;SDS011;27613;48.116;11.656;2023-05-10T10:21:04;1.70;;;0.80;;
41923;SDS011;27613;48.116;11.656;2023-05-10T10:23:31;0.93;;;0.50;;
41923;SDS011;27613;48.116;11.656;2023-05-10T10:25:57;1.35;;;0.70;;
41923;SDS011;27613;48.116;11.656;2023-05-10T10:28:30;1.73;;;0.47;;
41923;SDS011;27613;48.116;11.656;2023-05-10T10:31:23;0.52;;;0.43;;
41923;SDS011;27613;48.116;11.656;2023-05-10T10:33:55;2.15;;;0.68;;
41923;SDS011;27613;48.116;11.656;2023-05-10T10:36:24;9.77;;;1.00;;
41923;SDS011;27613;48.116;11.656;2023-05-10T10:41:41;1.70;;;0.73;;
41923;SDS011;27613;48.116;11.656;2023-05-10T10:47:10;3.05;;;0.75;;
41923;SDS011;27613;48.116;11.656;2023-05-10T10:49:50;1.85;;;0.75;;
41923;SDS011;27613;48.116;11.656;2023-05-10T10:52:27;1.70;;;0.80;;
41923;SDS011;27613;48.116;11.656;2023-05-10T11:02:54;1.92;;;0.85;;
41923;SDS011;27613;48.116;11.656;2023-05-10T11:05:51;2.55;;;0.68;;
41923;SDS011;27613;48.116;11.656;2023-05-10T11:16:13;1.42;;;0.70;;
41923;SDS011;27613;48.116;11.656;2023-05-10T11:18:40;2.53;;;0.93;;
41923;SDS011;27613;48.116;11.656;2023-05-10T11:21:16;1.25;;;0.70;;
41923;SDS011;27613;48.116;11.656;2023-05-10T11:26:10;1.52;;;0.77;;
41923;SDS011;27613;48.116;11.656;2023-05-10T11:28:43;1.92;;;0.98;;
41923;SDS011;27613;48.116;11.656;2023-05-10T11:31:10;1.23;;;0.73;;
41923;SDS011;27613;48.116;11.656;2023-05-10T11:33:44;1.75;;;1.00;;
41923;SDS011;27613;48.116;11.656;2023-05-10T11:36:15;2.90;;;0.88;;
41923;SDS011;27613;48.116;11.656;2023-05-10T11:38:42;1.48;;;1.23;;
41923;SDS011;27613;48.116;11.656;2023-05-10T11:41:08;3.90;;;1.50;;
41923;SDS011;27613;48.116;11.656;2023-05-10T11:43:36;3.17;;;1.52;;
41923;SDS011;27613;48.116;11.656;2023-05-10T11:46:03;2.72;;;1.42;;
41923;SDS011;27613;48.116;11.656;2023-05-10T11:48:32;1.95;;;1.33;;
41923;SDS011;27613;48.116;11.656;2023-05-10T11:50:58;2.38;;;1.08;;
41923;SDS011;27613;48.116;11.656;2023-05-10T11:53:27;5.10;;;1.40;;
41923;SDS011;27613;48.116;11.656;2023-05-10T11:55:54;10.38;;;1.45;;
41923;SDS011;27613;48.116;11.656;2023-05-10T11:58:19;5.25;;;1.60;;
41923;SDS011;27613;48.116;11.656;2023-05-10T12:00:46;4.43;;;2.05;;
41923;SDS011;27613;48.116;11.656;2023-05-10T12:03:12;4.53;;;2.10;;
41923;SDS011;27613;48.116;11.656;2023-05-10T12:05:38;3.83;;;1.98;;
41923;SDS011;27613;48.116;11.656;2023-05-10T12:08:13;5.22;;;2.85;;
41923;SDS011;27613;48.116;11.656;2023-05-10T12:10:39;6.57;;;2.60;;
41923;SDS011;27613;48.116;11.656;2023-05-10T12:13:05;4.80;;;2.50;;
41923;SDS011;27613;48.116;11.656;2023-05-10T12:15:35;5.22;;;2.30;;
41923;SDS011;27613;48.116;11.656;2023-05-10T12:18:00;3.60;;;2.20;;
41923;SDS011;27613;48.116;11.656;2023-05-10T12:20:27;3.53;;;1.98;;
41923;SDS011;27613;48.116;11.656;2023-05-10T12:22:54;4.53;;;1.98;;
41923;SDS011;27613;48.116;11.656;2023-05-10T12:25:21;4.82;;;1.73;;
41923;SDS011;27613;48.116;11.656;2023-05-10T12:27:51;3.22;;;1.60;;
41923;SDS011;27613;48.116;11.656;2023-05-10T12:30:24;2.42;;;1.38;;
41923;SDS011;27613;48.116;11.656;2023-05-10T12:32:51;4.03;;;1.52;;
41923;SDS011;27613;48.116;11.656;2023-05-10T12:35:17;2.17;;;1.30;;
41923;SDS011;27613;48.116;11.656;2023-05-10T12:37:48;2.28;;;1.35;;
41923;SDS011;27613;48.116;11.656;2023-05-10T12:40:15;1.65;;;1.13;;
41923;SDS011;27613;48.116;11.656;2023-05-10T12:42:40;6.10;;;1.30;;
41923;SDS011;27613;48.116;11.656;2023-05-10T12:45:06;1.65;;;1.17;;
41923;SDS011;27613;48.116;11.656;2023-05-10T12:47:33;2.17;;;1.17;;
41923;SDS011;27613;48.116;11.656;2023-05-10T12:49:59;3.08;;;1.30;;
41923;SDS011;27613;48.116;11.656;2023-05-10T12:52:26;3.17;;;1.40;;
41923;SDS011;27613;48.116;11.656;2023-05-10T12:54:52;3.28;;;1.70;;
41923;SDS011;27613;48.116;11.656;2023-05-10T12:57:18;1.95;;;1.08;;
41923;SDS011;27613;48.116;11.656;2023-05-10T12:59:44;1.80;;;1.30;;
41923;SDS011;27613;48.116;11.656;2023-05-10T13:02:10;2.80;;;1.63;;
41923;SDS011;27613;48.116;11.656;2023-05-10T13:04:35;3.35;;;1.33;;
41923;SDS011;27613;48.116;11.656;2023-05-10T13:07:04;2.90;;;1.40;;
41923;SDS011;27613;48.116;11.656;2023-05-10T13:09:30;5.35;;;1.67;;
41923;SDS011;27613;48.116;11.656;2023-05-10T13:11:56;1.48;;;1.20;;
41923;SDS011;27613;48.116;11.656;2023-05-10T13:14:21;2.58;;;1.08;;
41923;SDS011;27613;48.116;11.656;2023-05-10T13:16:47;2.88;;;1.52;;
41923;SDS011;27613;48.116;11.656;2023-05-10T13:19:13;2.50;;;1.38;;
41923;SDS011;27613;48.116;11.656;2023-05-10T13:21:39;2.25;;;1.23;;
41923;SDS011;27613;48.116;11.656;2023-05-10T13:24:06;2.25;;;1.45;;
41923;SDS011;27613;48.116;11.656;2023-05-10T13:26:32;2.67;;;1.67;;
41923;SDS011;27613;48.116;11.656;2023-05-10T13:28:57;3.33;;;1.52;;
41923;SDS011;27613;48.116;11.656;2023-05-10T13:31:23;2.30;;;1.23;;
41923;SDS011;27613;48.116;11.656;2023-05-10T13:33:49;2.00;;;1.38;;
41923;SDS011;27613;48.116;11.656;2023-05-10T13:36:14;6.70;;;1.58;;
41923;SDS011;27613;48.116;11.656;2023-05-10T13:38:40;2.10;;;1.17;;
41923;SDS011;27613;48.116;11.656;2023-05-10T13:41:05;2.33;;;1.13;;
41923;SDS011;27613;48.116;11.656;2023-05-10T13:43:31;3.65;;;1.42;;
41923;SDS011;27613;48.116;11.656;2023-05-10T13:45:56;2.25;;;1.48;;
41923;SDS011;27613;48.116;11.656;2023-05-10T13:48:22;4.60;;;1.63;;
41923;SDS011;27613;48.116;11.656;2023-05-10T13:50:47;2.15;;;1.20;;
41923;SDS011;27613;48.116;11.656;2023-05-10T13:53:13;4.82;;;1.50;;
41923;SDS011;27613;48.116;11.656;2023-05-10T13:55:39;4.50;;;1.40;;
41923;SDS011;27613;48.116;11.656;2023-05-10T13:58:05;4.60;;;1.67;;
41923;SDS011;27613;48.116;11.656;2023-05-10T14:00:30;2.63;;;1.38;;
41923;SDS011;27613;48.116;11.656;2023-05-10T14:02:56;2.45;;;1.20;;
41923;SDS011;27613;48.116;11.656;2023-05-10T14:05:21;2.53;;;1.20;;
41923;SDS011;27613;48.116;11.656;2023-05-10T14:07:48;3.25;;;1.15;;
41923;SDS011;27613;48.116;11.656;2023-05-10T14:10:15;2.78;;;1.40;;
41923;SDS011;27613;48.116;11.656;2023-05-10T14:12:40;2.60;;;1.17;;
41923;SDS011;27613;48.116;11.656;2023-05-10T14:15:06;5.85;;;1.10;;
41923;SDS011;27613;48.116;11.656;2023-05-10T14:17:32;2.95;;;1.20;;
41923;SDS011;27613;48.116;11.656;2023-05-10T14:19:57;3.38;;;1.33;;
41923;SDS011;27613;48.116;11.656;2023-05-10T14:22:23;7.30;;;1.17;;
41923;SDS011;27613;48.116;11.656;2023-05-10T14:24:49;2.17;;;0.98;;
41923;SDS011;27613;48.116;11.656;2023-05-10T14:27:15;1.98;;;1.25;;
41923;SDS011;27613;48.116;11.656;2023-05-10T14:29:40;2.03;;;1.13;;
41923;SDS011;27613;48.116;11.656;2023-05-10T14:32:06;1.60;;;1.20;;
41923;SDS011;27613;48.116;11.656;2023-05-10T14:34:32;4.53;;;1.35;;
41923;SDS011;27613;48.116;11.656;2023-05-10T14:36:58;3.47;;;1.65;;
41923;SDS011;27613;48.116;11.656;2023-05-10T14:39:23;1.77;;;0.90;;
41923;SDS011;27613;48.116;11.656;2023-05-10T14:41:49;7.40;;;1.17;;
41923;SDS011;27613;48.116;11.656;2023-05-10T14:44:17;1.73;;;1.10;;
41923;SDS011;27613;48.116;11.656;2023-05-10T14:46:42;1.52;;;1.15;;
41923;SDS011;27613;48.116;11.656;2023-05-10T14:49:08;1.00;;;0.90;;
41923;SDS011;27613;48.116;11.656;2023-05-10T14:51:33;2.03;;;1.30;;
41923;SDS011;27613;48.116;11.656;2023-05-10T14:53:59;1.83;;;1.15;;
41923;SDS011;27613;48.116;11.656;2023-05-10T14:56:24;1.95;;;1.30;;
41923;SDS011;27613;48.116;11.656;2023-05-10T14:58:51;1.20;;;1.00;;
41923;SDS011;27613;48.116;11.656;2023-05-10T15:01:16;6.38;;;1.15;;
41923;SDS011;27613;48.116;11.656;2023-05-10T15:03:42;1.25;;;0.93;;
41923;SDS011;27613;48.116;11.656;2023-05-10T15:06:08;1.13;;;0.82;;
41923;SDS011;27613;48.116;11.656;2023-05-10T15:08:33;3.28;;;1.10;;
41923;SDS011;27613;48.116;11.656;2023-05-10T15:10:59;2.38;;;1.13;;
41923;SDS011;27613;48.116;11.656;2023-05-10T15:13:24;2.10;;;1.10;;
41923;SDS011;27613;48.116;11.656;2023-05-10T15:15:50;2.38;;;1.20;;